sensor_id;sensor_type;location;lat;lon;timestamp;pressure;altitude;pressure_sealevel;temperature;humidity
51239;BME280;38154;47.548;18.828;2024-01-25T00:00:16;99126.63;;;4.09;100.00
51239;BME280;38154;47.548;18.828;2024-01-25T00:02:42;99126.69;;;4.11;100.00
51239;BME280;38154;47.548;18.828;2024-01-25T00:05:08;99128.25;;;4.07;100.00
51239;BME280;38154;47.548;18.828;2024-01-25T00:07:33;99127.91;;;3.96;100.00
51239;BME280;38154;47.548;18.828;2024-01-25T00:09:59;99110.63;;;3.94;100.00
51239;BME280;38154;47.548;18.828;2024-01-25T00:12:24;99111.50;;;3.94;100.00
51239;BME280;38154;47.548;18.828;2024-01-25T00:14:50;99109.00;;;3.96;100.00
51239;BME280;38154;47.548;18.828;2024-01-25T00:17:18;99113.34;;;3.98;100.00
51239;BME280;38154;47.548;18.828;2024-01-25T00:19:43;99109.16;;;4.02;100.00
51239;BME280;38154;47.548;18.828;2024-01-25T00:22:09;99112.53;;;3.99;100.00
51239;BME280;38154;47.548;18.828;2024-01-25T00:24:35;99117.75;;;4.01;100.00
51239;BME280;38154;47.548;18.828;2024-01-25T00:27:02;99119.38;;;3.97;100.00
51239;BME280;38154;47.548;18.828;2024-01-25T00:29:29;99121.25;;;4.03;100.00
51239;BME280;38154;47.548;18.828;2024-01-25T00:31:55;99111.63;;;3.97;100.00
51239;BME280;38154;47.548;18.828;2024-01-25T00:34:21;99114.16;;;3.96;100.00
51239;BME280;38154;47.548;18.828;2024-01-25T00:36:47;99115.78;;;3.94;100.00
51239;BME280;38154;47.548;18.828;2024-01-25T00:39:13;99116.91;;;4.02;100.00
51239;BME280;38154;47.548;18.828;2024-01-25T00:41:39;99118.63;;;4.01;100.00
51239;BME280;38154;47.548;18.828;2024-01-25T00:44:05;99113.34;;;3.98;100.00
51239;BME280;38154;47.548;18.828;2024-01-25T00:46:31;99123.63;;;3.97;100.00
51239;BME280;38154;47.548;18.828;2024-01-25T00:48:57;99123.38;;;3.89;100.00
51239;BME280;38154;47.548;18.828;2024-01-25T00:51:23;99118.94;;;3.85;100.00
51239;BME280;38154;47.548;18.828;2024-01-25T00:53:48;99106.94;;;3.87;100.00
51239;BME280;38154;47.548;18.828;2024-01-25T00:56:14;99115.69;;;3.90;100.00
51239;BME280;38154;47.548;18.828;2024-01-25T00:58:40;99108.31;;;4.01;100.00
51239;BME280;38154;47.548;18.828;2024-01-25T01:01:06;99111.00;;;4.04;100.00
51239;BME280;38154;47.548;18.828;2024-01-25T01:03:32;99105.09;;;4.08;100.00
51239;BME280;38154;47.548;18.828;2024-01-25T01:05:57;99102.56;;;4.10;100.00
51239;BME280;38154;47.548;18.828;2024-01-25T01:08:23;99101.59;;;4.06;100.00
51239;BME280;38154;47.548;18.828;2024-01-25T01:10:49;99112.81;;;4.08;100.00
51239;BME280;38154;47.548;18.828;2024-01-25T01:13:15;99114.53;;;4.08;100.00
51239;BME280;38154;47.548;18.828;2024-01-25T01:15:40;99104.16;;;4.06;100.00
51239;BME280;38154;47.548;18.828;2024-01-25T01:18:06;99106.22;;;4.17;100.00
51239;BME280;38154;47.548;18.828;2024-01-25T01:20:31;99105.56;;;4.24;100.00
51239;BME280;38154;47.548;18.828;2024-01-25T01:22:57;99105.00;;;4.33;100.00
51239;BME280;38154;47.548;18.828;2024-01-25T01:25:23;99107.72;;;4.37;100.00
51239;BME280;38154;47.548;18.828;2024-01-25T01:27:48;99103.50;;;4.39;100.00
51239;BME280;38154;47.548;18.828;2024-01-25T01:30:14;99109.44;;;4.37;100.00
51239;BME280;38154;47.548;18.828;2024-01-25T01:32:40;99102.69;;;4.42;100.00
51239;BME280;38154;47.548;18.828;2024-01-25T01:35:05;99107.00;;;4.41;100.00
51239;BME280;38154;47.548;18.828;2024-01-25T01:37:31;99103.53;;;4.41;100.00
51239;BME280;38154;47.548;18.828;2024-01-25T01:39:57;99104.25;;;4.37;100.00
51239;BME280;38154;47.548;18.828;2024-01-25T01:42:24;99110.84;;;4.27;100.00
51239;BME280;38154;47.548;18.828;2024-01-25T01:44:50;99105.81;;;4.32;100.00
51239;BME280;38154;47.548;18.828;2024-01-25T01:47:17;99101.63;;;4.35;100.00
51239;BME280;38154;47.548;18.828;2024-01-25T01:49:42;99104.50;;;4.44;100.00
51239;BME280;38154;47.548;18.828;2024-01-25T01:52:08;99100.41;;;4.51;100.00
51239;BME280;38154;47.548;18.828;2024-01-25T01:54:34;99099.75;;;4.58;100.00
51239;BME280;38154;47.548;18.828;2024-01-25T01:57:00;99086.16;;;4.64;100.00
51239;BME280;38154;47.548;18.828;2024-01-25T01:59:27;99091.66;;;4.75;100.00
51239;BME280;38154;47.548;18.828;2024-01-25T02:01:54;99091.03;;;4.83;100.00
51239;BME280;38154;47.548;18.828;2024-01-25T02:04:20;99084.16;;;4.84;100.00
51239;BME280;38154;47.548;18.828;2024-01-25T02:06:45;99077.41;;;4.88;100.00
51239;BME280;38154;47.548;18.828;2024-01-25T02:09:11;99083.62;;;4.96;100.00
51239;BME280;38154;47.548;18.828;2024-01-25T02:11:37;99093.37;;;5.05;100.00
51239;BME280;38154;47.548;18.828;2024-01-25T02:14:03;99094.34;;;5.08;100.00
51239;BME280;38154;47.548;18.828;2024-01-25T02:16:28;99088.31;;;5.09;100.00
51239;BME280;38154;47.548;18.828;2024-01-25T02:18:54;99088.34;;;5.11;100.00
51239;BME280;38154;47.548;18.828;2024-01-25T02:21:22;99093.44;;;5.08;100.00
51239;BME280;38154;47.548;18.828;2024-01-25T02:23:48;99089.06;;;5.05;100.00
51239;BME280;38154;47.548;18.828;2024-01-25T02:26:13;99089.13;;;5.07;100.00
51239;BME280;38154;47.548;18.828;2024-01-25T02:28:39;99083.91;;;5.05;100.00
51239;BME280;38154;47.548;18.828;2024-01-25T02:31:05;99093.47;;;5.09;100.00
51239;BME280;38154;47.548;18.828;2024-01-25T02:33:30;99079.59;;;5.06;100.00
51239;BME280;38154;47.548;18.828;2024-01-25T02:35:56;99087.22;;;5.01;100.00
51239;BME280;38154;47.548;18.828;2024-01-25T02:38:22;99076.06;;;5.02;100.00
51239;BME280;38154;47.548;18.828;2024-01-25T02:40:47;99086.22;;;4.96;100.00
51239;BME280;38154;47.548;18.828;2024-01-25T02:43:13;99087.84;;;4.92;100.00
51239;BME280;38154;47.548;18.828;2024-01-25T02:45:39;99086.97;;;4.92;100.00
51239;BME280;38154;47.548;18.828;2024-01-25T02:48:04;99079.88;;;4.85;100.00
51239;BME280;38154;47.548;18.828;2024-01-25T02:50:30;99086.69;;;4.82;100.00
51239;BME280;38154;47.548;18.828;2024-01-25T02:52:56;99084.00;;;4.78;100.00
51239;BME280;38154;47.548;18.828;2024-01-25T02:55:22;99093.28;;;4.71;100.00
51239;BME280;38154;47.548;18.828;2024-01-25T02:57:47;99087.16;;;4.68;100.00
51239;BME280;38154;47.548;18.828;2024-01-25T03:00:13;99086.25;;;4.67;100.00
51239;BME280;38154;47.548;18.828;2024-01-25T03:02:39;99090.59;;;4.68;100.00
51239;BME280;38154;47.548;18.828;2024-01-25T03:05:04;99087.91;;;4.65;100.00
51239;BME280;38154;47.548;18.828;2024-01-25T03:07:30;99091.25;;;4.61;100.00
51239;BME280;38154;47.548;18.828;2024-01-25T03:09:56;99089.28;;;4.54;100.00
51239;BME280;38154;47.548;18.828;2024-01-25T03:12:21;99095.91;;;4.45;100.00
51239;BME280;38154;47.548;18.828;2024-01-25T03:14:48;99092.47;;;4.45;100.00
51239;BME280;38154;47.548;18.828;2024-01-25T03:17:13;99088.81;;;4.38;100.00
51239;BME280;38154;47.548;18.828;2024-01-25T03:19:39;99088.00;;;4.39;100.00
51239;BME280;38154;47.548;18.828;2024-01-25T03:22:05;99090.91;;;4.50;100.00
51239;BME280;38154;47.548;18.828;2024-01-25T03:24:30;99089.69;;;4.66;100.00
51239;BME280;38154;47.548;18.828;2024-01-25T03:26:56;99086.53;;;4.76;100.00
51239;BME280;38154;47.548;18.828;2024-01-25T03:29:22;99088.44;;;4.83;100.00
51239;BME280;38154;47.548;18.828;2024-01-25T03:31:47;99088.50;;;4.85;100.00
51239;BME280;38154;47.548;18.828;2024-01-25T03:34:13;99093.72;;;4.87;100.00
51239;BME280;38154;47.548;18.828;2024-01-25T03:36:39;99088.72;;;4.93;100.00
51239;BME280;38154;47.548;18.828;2024-01-25T03:39:05;99088.97;;;5.02;100.00
51239;BME280;38154;47.548;18.828;2024-01-25T03:41:32;99087.41;;;5.07;100.00
51239;BME280;38154;47.548;18.828;2024-01-25T03:43:58;99082.47;;;5.15;100.00
51239;BME280;38154;47.548;18.828;2024-01-25T03:46:23;99084.31;;;5.20;100.00
51239;BME280;38154;47.548;18.828;2024-01-25T03:48:49;99080.28;;;5.30;100.00
51239;BME280;38154;47.548;18.828;2024-01-25T03:51:15;99085.56;;;5.33;100.00
51239;BME280;38154;47.548;18.828;2024-01-25T03:53:41;99078.72;;;5.35;100.00
51239;BME280;38154;47.548;18.828;2024-01-25T03:56:11;99087.50;;;5.42;100.00
51239;BME280;38154;47.548;18.828;2024-01-25T03:58:38;99078.13;;;5.46;100.00
51239;BME280;38154;47.548;18.828;2024-01-25T04:01:03;99087.59;;;5.45;100.00
51239;BME280;38154;47.548;18.828;2024-01-25T04:03:29;99075.75;;;5.53;100.00
51239;BME280;38154;47.548;18.828;2024-01-25T04:05:55;99079.44;;;5.63;100.00
51239;BME280;38154;47.548;18.828;2024-01-25T04:08:21;99082.94;;;5.65;100.00
51239;BME280;38154;47.548;18.828;2024-01-25T04:10:46;99091.66;;;5.69;100.00
51239;BME280;38154;47.548;18.828;2024-01-25T04:13:12;99091.78;;;5.73;100.00
51239;BME280;38154;47.548;18.828;2024-01-25T04:15:37;99094.28;;;5.70;100.00
51239;BME280;38154;47.548;18.828;2024-01-25T04:18:03;99090.66;;;5.64;100.00
51239;BME280;38154;47.548;18.828;2024-01-25T04:20:29;99085.63;;;5.68;100.00
51239;BME280;38154;47.548;18.828;2024-01-25T04:22:54;99078.87;;;5.75;100.00
51239;BME280;38154;47.548;18.828;2024-01-25T04:25:21;99079.84;;;5.79;100.00
51239;BME280;38154;47.548;18.828;2024-01-25T04:27:47;99081.47;;;5.75;100.00
51239;BME280;38154;47.548;18.828;2024-01-25T04:30:12;99078.53;;;5.63;100.00
51239;BME280;38154;47.548;18.828;2024-01-25T04:32:39;99083.62;;;5.58;100.00
51239;BME280;38154;47.548;18.828;2024-01-25T04:35:05;99079.75;;;5.42;100.00
51239;BME280;38154;47.548;18.828;2024-01-25T04:37:31;99084.28;;;5.51;100.00
51239;BME280;38154;47.548;18.828;2024-01-25T04:39:57;99094.59;;;5.49;100.00
51239;BME280;38154;47.548;18.828;2024-01-25T04:42:22;99088.72;;;5.55;100.00
51239;BME280;38154;47.548;18.828;2024-01-25T04:44:48;99087.50;;;5.42;100.00
51239;BME280;38154;47.548;18.828;2024-01-25T04:47:14;99096.34;;;5.50;100.00
51239;BME280;38154;47.548;18.828;2024-01-25T04:49:40;99101.56;;;5.52;100.00
51239;BME280;38154;47.548;18.828;2024-01-25T04:52:05;99094.72;;;5.54;100.00
51239;BME280;38154;47.548;18.828;2024-01-25T04:54:31;99104.06;;;5.49;100.00
51239;BME280;38154;47.548;18.828;2024-01-25T04:56:57;99110.88;;;5.45;100.00
51239;BME280;38154;47.548;18.828;2024-01-25T04:59:23;99116.09;;;5.47;100.00
51239;BME280;38154;47.548;18.828;2024-01-25T05:01:49;99126.25;;;5.41;100.00
51239;BME280;38154;47.548;18.828;2024-01-25T05:04:15;99120.31;;;5.43;100.00
51239;BME280;38154;47.548;18.828;2024-01-25T05:06:41;99121.94;;;5.41;100.00
51239;BME280;38154;47.548;18.828;2024-01-25T05:09:06;99128.19;;;5.49;100.00
51239;BME280;38154;47.548;18.828;2024-01-25T05:11:38;99131.66;;;5.48;100.00
51239;BME280;38154;47.548;18.828;2024-01-25T05:14:03;99132.37;;;5.44;100.00
51239;BME280;38154;47.548;18.828;2024-01-25T05:16:29;99135.69;;;5.38;100.00
51239;BME280;38154;47.548;18.828;2024-01-25T05:18:55;99133.88;;;5.36;100.00
51239;BME280;38154;47.548;18.828;2024-01-25T05:21:20;99135.69;;;5.38;100.00
51239;BME280;38154;47.548;18.828;2024-01-25T05:23:46;99143.31;;;5.34;100.00
51239;BME280;38154;47.548;18.828;2024-01-25T05:26:12;99136.31;;;5.30;100.00
51239;BME280;38154;47.548;18.828;2024-01-25T05:28:37;99142.06;;;5.19;100.00
51239;BME280;38154;47.548;18.828;2024-01-25T05:31:03;99136.88;;;5.19;100.00
51239;BME280;38154;47.548;18.828;2024-01-25T05:33:29;99135.06;;;5.17;100.00
51239;BME280;38154;47.548;18.828;2024-01-25T05:35:54;99137.53;;;5.12;100.00
51239;BME280;38154;47.548;18.828;2024-01-25T05:38:20;99124.69;;;5.15;100.00
51239;BME280;38154;47.548;18.828;2024-01-25T05:40:46;99130.66;;;5.13;100.00
51239;BME280;38154;47.548;18.828;2024-01-25T05:43:11;99131.28;;;5.06;100.00
51239;BME280;38154;47.548;18.828;2024-01-25T05:45:38;99139.97;;;5.08;100.00
51239;BME280;38154;47.548;18.828;2024-01-25T05:48:04;99136.59;;;5.10;100.00
51239;BME280;38154;47.548;18.828;2024-01-25T05:50:30;99134.88;;;5.11;100.00
51239;BME280;38154;47.548;18.828;2024-01-25T05:52:56;99132.41;;;5.14;100.00
51239;BME280;38154;47.548;18.828;2024-01-25T05:55:21;99137.53;;;5.12;100.00
51239;BME280;38154;47.548;18.828;2024-01-25T05:57:47;99135.75;;;5.10;100.00
51239;BME280;38154;47.548;18.828;2024-01-25T06:00:13;99138.22;;;5.07;100.00
51239;BME280;38154;47.548;18.828;2024-01-25T06:02:40;99130.34;;;5.02;100.00
51239;BME280;38154;47.548;18.828;2024-01-25T06:05:06;99131.28;;;5.06;100.00
51239;BME280;38154;47.548;18.828;2024-01-25T06:07:33;99121.81;;;5.05;100.00
51239;BME280;38154;47.548;18.828;2024-01-25T06:09:58;99122.84;;;5.11;100.00
51239;BME280;38154;47.548;18.828;2024-01-25T06:12:24;99123.69;;;5.10;100.00
51239;BME280;38154;47.548;18.828;2024-01-25T06:14:50;99120.28;;;5.11;100.00
51239;BME280;38154;47.548;18.828;2024-01-25T06:17:17;99115.34;;;5.20;100.00
51239;BME280;38154;47.548;18.828;2024-01-25T06:19:43;99113.69;;;5.23;100.00
51239;BME280;38154;47.548;18.828;2024-01-25T06:22:09;99113.12;;;5.34;100.00
51239;BME280;38154;47.548;18.828;2024-01-25T06:24:34;99106.38;;;5.38;100.00
51239;BME280;38154;47.548;18.828;2024-01-25T06:27:01;99113.41;;;5.44;100.00
51239;BME280;38154;47.548;18.828;2024-01-25T06:29:26;99116.16;;;5.50;100.00
51239;BME280;38154;47.548;18.828;2024-01-25T06:31:52;99109.63;;;5.64;100.00
51239;BME280;38154;47.548;18.828;2024-01-25T06:34:17;99097.09;;;5.80;100.00
51239;BME280;38154;47.548;18.828;2024-01-25T06:36:43;99089.44;;;5.84;100.00
51239;BME280;38154;47.548;18.828;2024-01-25T06:39:09;99098.28;;;5.92;100.00
51239;BME280;38154;47.548;18.828;2024-01-25T06:41:34;99089.06;;;6.02;100.00
51239;BME280;38154;47.548;18.828;2024-01-25T06:44:00;99084.91;;;6.09;100.00
51239;BME280;38154;47.548;18.828;2024-01-25T06:46:26;99080.50;;;6.05;100.00
51239;BME280;38154;47.548;18.828;2024-01-25T06:48:52;99077.16;;;6.09;100.00
51239;BME280;38154;47.548;18.828;2024-01-25T06:51:17;99084.22;;;6.16;100.00
51239;BME280;38154;47.548;18.828;2024-01-25T06:53:43;99080.00;;;6.20;100.00
51239;BME280;38154;47.548;18.828;2024-01-25T06:56:09;99085.81;;;6.11;100.00
51239;BME280;38154;47.548;18.828;2024-01-25T06:58:34;99077.19;;;6.10;100.00
51239;BME280;38154;47.548;18.828;2024-01-25T07:01:00;99079.88;;;6.13;100.00
51239;BME280;38154;47.548;18.828;2024-01-25T07:03:25;99078.81;;;6.05;100.00
51239;BME280;38154;47.548;18.828;2024-01-25T07:05:51;99083.25;;;6.11;100.00
51239;BME280;38154;47.548;18.828;2024-01-25T07:08:17;99074.53;;;6.07;100.00
51239;BME280;38154;47.548;18.828;2024-01-25T07:10:44;99079.66;;;6.06;100.00
51239;BME280;38154;47.548;18.828;2024-01-25T07:13:09;99092.84;;;6.15;100.00
51239;BME280;38154;47.548;18.828;2024-01-25T07:15:35;99094.78;;;6.24;100.00
51239;BME280;38154;47.548;18.828;2024-01-25T07:18:01;99101.09;;;6.37;100.00
51239;BME280;38154;47.548;18.828;2024-01-25T07:20:27;99090.09;;;6.45;100.00
51239;BME280;38154;47.548;18.828;2024-01-25T07:22:52;99082.47;;;6.53;100.00
51239;BME280;38154;47.548;18.828;2024-01-25T07:25:18;99076.72;;;6.66;100.00
51239;BME280;38154;47.548;18.828;2024-01-25T07:27:44;99086.41;;;6.74;100.00
51239;BME280;38154;47.548;18.828;2024-01-25T07:30:11;99096.34;;;6.95;100.00
51239;BME280;38154;47.548;18.828;2024-01-25T07:32:37;99097.28;;;7.90;100.00
51239;BME280;38154;47.548;18.828;2024-01-25T07:35:04;99101.37;;;8.29;98.51
51239;BME280;38154;47.548;18.828;2024-01-25T07:37:30;99105.88;;;8.41;96.54
51239;BME280;38154;47.548;18.828;2024-01-25T07:39:56;99104.38;;;8.53;97.31
51239;BME280;38154;47.548;18.828;2024-01-25T07:42:21;99097.56;;;8.60;94.33
51239;BME280;38154;47.548;18.828;2024-01-25T07:44:47;99095.00;;;8.63;93.24
51239;BME280;38154;47.548;18.828;2024-01-25T07:47:14;99087.78;;;9.08;91.24
51239;BME280;38154;47.548;18.828;2024-01-25T07:49:40;99080.94;;;9.99;85.79
51239;BME280;38154;47.548;18.828;2024-01-25T07:52:06;99073.75;;;10.93;77.57
51239;BME280;38154;47.548;18.828;2024-01-25T07:54:32;99074.00;;;11.70;75.54
51239;BME280;38154;47.548;18.828;2024-01-25T07:56:57;99053.97;;;12.21;68.67
51239;BME280;38154;47.548;18.828;2024-01-25T07:59:23;99040.03;;;12.38;66.41
51239;BME280;38154;47.548;18.828;2024-01-25T08:01:49;99023.47;;;12.42;65.15
51239;BME280;38154;47.548;18.828;2024-01-25T08:04:14;99022.59;;;12.38;64.27
51239;BME280;38154;47.548;18.828;2024-01-25T08:06:40;99025.00;;;12.97;63.24
51239;BME280;38154;47.548;18.828;2024-01-25T08:09:06;99008.41;;;13.07;61.97
51239;BME280;38154;47.548;18.828;2024-01-25T08:11:31;99010.03;;;13.22;61.14
51239;BME280;38154;47.548;18.828;2024-01-25T08:13:57;99011.78;;;13.32;60.43
51239;BME280;38154;47.548;18.828;2024-01-25T08:16:23;99009.09;;;13.42;60.12
51239;BME280;38154;47.548;18.828;2024-01-25T08:18:48;99018.00;;;13.05;62.00
51239;BME280;38154;47.548;18.828;2024-01-25T08:21:14;99017.87;;;13.39;61.94
51239;BME280;38154;47.548;18.828;2024-01-25T08:23:40;99019.41;;;13.68;61.20
51239;BME280;38154;47.548;18.828;2024-01-25T08:26:06;99025.37;;;13.84;59.56
51239;BME280;38154;47.548;18.828;2024-01-25T08:28:35;99032.31;;;13.92;59.17
51239;BME280;38154;47.548;18.828;2024-01-25T08:31:01;99036.25;;;14.41;56.76
51239;BME280;38154;47.548;18.828;2024-01-25T08:33:27;99051.19;;;14.36;57.81
51239;BME280;38154;47.548;18.828;2024-01-25T08:35:53;99045.41;;;13.94;57.46
51239;BME280;38154;47.548;18.828;2024-01-25T08:38:19;99044.34;;;14.18;56.49
51239;BME280;38154;47.548;18.828;2024-01-25T08:40:44;99069.75;;;14.13;57.31
51239;BME280;38154;47.548;18.828;2024-01-25T08:43:10;99053.97;;;14.18;57.61
51239;BME280;38154;47.548;18.828;2024-01-25T08:45:35;99046.78;;;14.38;55.86
51239;BME280;38154;47.548;18.828;2024-01-25T08:48:02;99040.78;;;14.25;55.64
51239;BME280;38154;47.548;18.828;2024-01-25T08:50:28;99046.19;;;14.07;56.16
51239;BME280;38154;47.548;18.828;2024-01-25T08:52:53;99061.78;;;14.22;54.92
51239;BME280;38154;47.548;18.828;2024-01-25T08:55:19;99060.81;;;14.33;55.19
51239;BME280;38154;47.548;18.828;2024-01-25T08:57:45;99059.41;;;14.88;54.57
51239;BME280;38154;47.548;18.828;2024-01-25T09:00:11;99074.84;;;15.15;53.40
51239;BME280;38154;47.548;18.828;2024-01-25T09:02:37;99072.56;;;14.83;55.28
51239;BME280;38154;47.548;18.828;2024-01-25T09:05:03;99072.75;;;15.40;53.20
51239;BME280;38154;47.548;18.828;2024-01-25T09:07:29;99074.25;;;14.92;52.23
51239;BME280;38154;47.548;18.828;2024-01-25T09:09:55;99089.19;;;14.87;53.35
51239;BME280;38154;47.548;18.828;2024-01-25T09:12:20;99095.94;;;15.06;52.63
51239;BME280;38154;47.548;18.828;2024-01-25T09:14:46;99097.38;;;15.33;52.51
51239;BME280;38154;47.548;18.828;2024-01-25T09:17:12;99098.41;;;15.87;50.86
51239;BME280;38154;47.548;18.828;2024-01-25T09:19:39;99101.94;;;15.87;50.28
51239;BME280;38154;47.548;18.828;2024-01-25T09:22:06;99105.19;;;16.02;50.77
51239;BME280;38154;47.548;18.828;2024-01-25T09:24:33;99110.22;;;16.17;49.68
51239;BME280;38154;47.548;18.828;2024-01-25T09:27:01;99113.66;;;16.22;48.97
51239;BME280;38154;47.548;18.828;2024-01-25T09:29:27;99124.50;;;16.55;49.00
51239;BME280;38154;47.548;18.828;2024-01-25T09:31:57;99107.81;;;16.02;48.47
51239;BME280;38154;47.548;18.828;2024-01-25T09:34:26;99121.66;;;16.16;49.34
51239;BME280;38154;47.548;18.828;2024-01-25T09:36:51;99121.59;;;16.21;47.95
51239;BME280;38154;47.548;18.828;2024-01-25T09:39:17;99134.75;;;16.19;48.32
51239;BME280;38154;47.548;18.828;2024-01-25T09:41:43;99128.19;;;15.90;48.48
51239;BME280;38154;47.548;18.828;2024-01-25T09:44:09;99137.91;;;15.14;50.84
51239;BME280;38154;47.548;18.828;2024-01-25T09:46:35;99145.72;;;14.19;52.59
51239;BME280;38154;47.548;18.828;2024-01-25T09:49:01;99123.06;;;14.12;52.04
51239;BME280;38154;47.548;18.828;2024-01-25T09:51:27;99132.75;;;14.01;53.68
51239;BME280;38154;47.548;18.828;2024-01-25T09:53:55;99129.41;;;13.79;53.47
51239;BME280;38154;47.548;18.828;2024-01-25T09:56:22;99120.53;;;14.00;53.97
51239;BME280;38154;47.548;18.828;2024-01-25T09:58:48;99141.06;;;14.58;53.02
51239;BME280;38154;47.548;18.828;2024-01-25T10:01:15;99135.47;;;14.97;51.07
51239;BME280;38154;47.548;18.828;2024-01-25T10:03:44;99132.75;;;15.77;49.62
51239;BME280;38154;47.548;18.828;2024-01-25T10:06:13;99128.44;;;15.69;49.40
51239;BME280;38154;47.548;18.828;2024-01-25T10:08:39;99134.06;;;15.41;49.67
51239;BME280;38154;47.548;18.828;2024-01-25T10:11:05;99144.38;;;14.80;49.99
51239;BME280;38154;47.548;18.828;2024-01-25T10:13:31;99149.16;;;14.26;50.91
51239;BME280;38154;47.548;18.828;2024-01-25T10:15:57;99130.34;;;13.65;51.90
51239;BME280;38154;47.548;18.828;2024-01-25T10:18:23;99129.69;;;13.11;53.17
51239;BME280;38154;47.548;18.828;2024-01-25T10:20:49;99114.97;;;12.11;57.11
51239;BME280;38154;47.548;18.828;2024-01-25T10:23:15;99112.22;;;11.49;59.94
51239;BME280;38154;47.548;18.828;2024-01-25T10:25:41;99098.22;;;11.17;61.30
51239;BME280;38154;47.548;18.828;2024-01-25T10:28:07;99109.56;;;11.25;63.26
51239;BME280;38154;47.548;18.828;2024-01-25T10:30:33;99101.69;;;11.19;63.58
51239;BME280;38154;47.548;18.828;2024-01-25T10:32:59;99107.69;;;11.02;64.80
51239;BME280;38154;47.548;18.828;2024-01-25T10:35:25;99087.66;;;10.92;65.67
51239;BME280;38154;47.548;18.828;2024-01-25T10:37:52;99097.19;;;10.88;64.60
51239;BME280;38154;47.548;18.828;2024-01-25T10:40:18;99095.41;;;10.76;66.43
51239;BME280;38154;47.548;18.828;2024-01-25T10:42:44;99090.94;;;10.58;67.82
51239;BME280;38154;47.548;18.828;2024-01-25T10:45:10;99102.13;;;10.44;68.78
51239;BME280;38154;47.548;18.828;2024-01-25T10:47:36;99095.88;;;10.25;66.39
51239;BME280;38154;47.548;18.828;2024-01-25T10:50:01;99078.44;;;10.14;68.70
51239;BME280;38154;47.548;18.828;2024-01-25T10:52:28;99086.16;;;10.00;68.31
51239;BME280;38154;47.548;18.828;2024-01-25T10:54:54;99083.72;;;10.24;69.09
51239;BME280;38154;47.548;18.828;2024-01-25T10:57:20;99073.63;;;10.68;66.84
51239;BME280;38154;47.548;18.828;2024-01-25T10:59:45;99092.22;;;11.51;65.64
51239;BME280;38154;47.548;18.828;2024-01-25T11:02:12;99080.06;;;11.58;64.35
51239;BME280;38154;47.548;18.828;2024-01-25T11:04:37;99089.50;;;11.14;64.70
51239;BME280;38154;47.548;18.828;2024-01-25T11:07:07;99092.72;;;10.61;66.17
51239;BME280;38154;47.548;18.828;2024-01-25T11:09:34;99076.97;;;10.44;66.67
51239;BME280;38154;47.548;18.828;2024-01-25T11:12:01;99080.22;;;10.21;69.46
51239;BME280;38154;47.548;18.828;2024-01-25T11:14:26;99077.50;;;10.06;68.46
51239;BME280;38154;47.548;18.828;2024-01-25T11:16:52;99072.09;;;9.84;68.41
51239;BME280;38154;47.548;18.828;2024-01-25T11:19:18;99081.59;;;9.78;68.93
51239;BME280;38154;47.548;18.828;2024-01-25T11:21:45;99084.91;;;9.61;69.69
51239;BME280;38154;47.548;18.828;2024-01-25T11:24:19;99086.75;;;9.73;69.85
51239;BME280;38154;47.548;18.828;2024-01-25T11:26:45;99087.53;;;9.63;69.64
51239;BME280;38154;47.548;18.828;2024-01-25T11:29:18;99098.00;;;9.68;70.30
51239;BME280;38154;47.548;18.828;2024-01-25T11:31:49;99095.34;;;9.63;70.88
51239;BME280;38154;47.548;18.828;2024-01-25T11:34:15;99095.06;;;9.38;71.70
51239;BME280;38154;47.548;18.828;2024-01-25T11:36:42;99088.69;;;9.12;72.60
51239;BME280;38154;47.548;18.828;2024-01-25T11:39:11;99111.19;;;9.09;75.43
51239;BME280;38154;47.548;18.828;2024-01-25T11:41:37;99087.88;;;9.16;73.73
51239;BME280;38154;47.548;18.828;2024-01-25T11:44:03;99079.97;;;9.08;75.16
51239;BME280;38154;47.548;18.828;2024-01-25T11:46:29;99087.50;;;8.86;76.47
51239;BME280;38154;47.548;18.828;2024-01-25T11:48:55;99082.16;;;8.76;76.78
51239;BME280;38154;47.548;18.828;2024-01-25T11:51:21;99080.38;;;8.73;75.95
51239;BME280;38154;47.548;18.828;2024-01-25T11:53:47;99071.63;;;8.66;76.50
51239;BME280;38154;47.548;18.828;2024-01-25T11:56:14;99063.66;;;8.54;77.41
51239;BME280;38154;47.548;18.828;2024-01-25T11:58:42;99048.94;;;8.54;76.30
51239;BME280;38154;47.548;18.828;2024-01-25T12:01:08;99049.75;;;8.49;77.83
51239;BME280;38154;47.548;18.828;2024-01-25T12:03:35;99035.00;;;8.49;77.25
51239;BME280;38154;47.548;18.828;2024-01-25T12:06:04;99044.59;;;8.52;75.81
51239;BME280;38154;47.548;18.828;2024-01-25T12:08:33;99041.06;;;8.47;76.07
51239;BME280;38154;47.548;18.828;2024-01-25T12:11:05;99047.06;;;8.44;74.68
51239;BME280;38154;47.548;18.828;2024-01-25T12:13:34;99046.28;;;8.48;76.35
51239;BME280;38154;47.548;18.828;2024-01-25T12:16:00;99049.66;;;8.44;72.87
51239;BME280;38154;47.548;18.828;2024-01-25T12:18:26;99055.56;;;8.35;74.24
51239;BME280;38154;47.548;18.828;2024-01-25T12:20:52;99067.72;;;8.36;74.65
51239;BME280;38154;47.548;18.828;2024-01-25T12:23:18;99058.22;;;8.39;75.04
51239;BME280;38154;47.548;18.828;2024-01-25T12:25:45;99058.22;;;8.39;74.53
51239;BME280;38154;47.548;18.828;2024-01-25T12:28:11;99060.94;;;8.43;73.16
51239;BME280;38154;47.548;18.828;2024-01-25T12:30:36;99043.53;;;8.41;72.39
51239;BME280;38154;47.548;18.828;2024-01-25T12:33:03;99071.13;;;8.34;72.71
51239;BME280;38154;47.548;18.828;2024-01-25T12:35:29;99071.03;;;8.26;71.55
51239;BME280;38154;47.548;18.828;2024-01-25T12:37:54;99076.25;;;8.29;72.82
51239;BME280;38154;47.548;18.828;2024-01-25T12:40:20;99068.50;;;8.31;73.33
51239;BME280;38154;47.548;18.828;2024-01-25T12:42:46;99073.72;;;8.32;73.46